Startpagina
METAR-TAF:

METAR-TAF

Vliegvelden :

Aurillac, Frankrijk

breedte: 44-53N, lengte: 002-25E, hoogte: 639 m

Actueel weer

Dit bericht is 27 minuten geleden gemaakt, om 20:00 UTC
Wind 3 kt uit het oostnoordoosten
Temperatuur 6°C
Vochtigheid 75%
Druk 1031 hPa
Zicht 10 km of meer

METAR: LFLW 232000Z AUTO 06003KT 9999 ////// 06/02 Q1031

Tijdstip: 21:27 (20:27 UTC)

Verwachting

Dit bericht is 6 uur en het 27 minuten geleden gemaakt, om 14:00 UTC
Verwachting geldig van 23 om 15 UTC tot 23 om 24 UTC
Wind 3 kt uit variabele richting
Zicht 10 km of meer
geen wolken onder 1500 m en geen cumulonimbus
Wijzigt naar
van 23 om 20 UTC tot 23 om 22 UTC
Zicht: 3000 m
nevel
Kans 30% :
Tijdelijke
van 23 om 22 UTC tot 23 om 24 UTC
Zicht: 0600 m
mist

TAF: LFLW 231400Z 2315/2324 VRB03KT CAVOK BECMG 2320/2322 3000 BR PROB30 TEMPO 2322/2324 0600 FG VV///

Waarnemingen en weersverwachtingen van meer dan 4000 vliegvelden (METAR en TAF).

De beschikbare stations zijn de gele en rode punten op de kaart.

Ga met uw muis naar het station om de naam te zien.

Klik dan om waarnemingen en weersverwachtingen te zien.

kaart wijzigen: klik op de groene knoppen met een zwart kruis om in te zoomen, op de groene knop met een streepje om uit te zoomen of op de groene pijlen voor aangrenzende kaarten.


METAR-TAF: